Amherst, MA

1:26 AM EDT on August 21, 2014 (GMT -0400)
North Amherst | Change Station
CLOSE
Current Station
Personal Weather Station
Location: Amherst, MA
Elevation: 223 ft
Nearby Weather Stations

Elev 223 ft 42.42 °N, 72.52 °W | Updated 5 minutes ago

Scattered Clouds
Scattered Clouds
64.4 °F
Feels Like 64.4 °F
N
0.0
Wind Variable Wind from North
Gusts 0.0 mph

Today
High -- | Low -- °F
--% Chance of Precip.
Yesterday
High -- | Low -- °F
Precip. -- in
6:03 AM 7:41 PM
Waning Crescent, 16% visible
Pressure 30.06 in
Visibility 10.0 miles
Clouds Few 10000 ft
Scattered Clouds 19000 ft
Dew Point 61 °F
Humidity 88%
Rainfall 0.00 in
Snow Depth Not available.
UV 0 out of 12
Pollen 9.20 out of 12
Air Quality Not available.
Flu Activity Not available.
METAR KCEF 210458Z AUTO 00000KT 10SM FEW100 SCT190 17/16 A3004 RMK AO2 SLP177 T01730157 402890101

More Conditions Fewer Conditions

Pressure 30.06 in
Visibility 10.0 miles
Clouds Few 10000 ft
Scattered Clouds 19000 ft
Dew Point 61 °F
Humidity 88%
Rainfall 0.00 in
Snow Depth Not available.
UV 0 out of 12
Pollen 9.20 out of 12
Air Quality Not available.
Flu Activity Not available.
METAR KCEF 210458Z AUTO 00000KT 10SM FEW100 SCT190 17/16 A3004 RMK AO2 SLP177 T01730157 402890101

More Conditions Fewer Conditions

10-Day Weather Forecast

Almanac

Astronomy

Aug. 21, 2014 Rise Set
Actual Time 6:03 AM EDT 7:41 PM EDT
Civil Twilight 5:33 AM EDT 8:11 PM EDT
Nautical Twilight 4:57 AM EDT 8:47 PM EDT
Astronomical Twilight 4:18 AM EDT 9:25 PM EDT
Moon 2:29 AM EDT 5:10 PM EDT
Length of Visible Light 14h 37m
Length of Day
13h 38m
Tomorrow will be 2m 38s shorter.
Waning Crescent, 16% of the Moon is Illuminated
Today
Waning Crescent
Aug 25
New
Sep 2
First Quarter
Sep 8
Full
Sep 15
Last Quarter

Today's Extremes

State Highs State Lows

Community

WunderPhotos

Upload Photos

1,745,858 photos uploaded!

Nearby

Air Quality

  Air Quality AQ Index Pollutant
Wednesday Good
PM2.5
Wednesday Good
OZONE
Thursday Good
PM2.5
Thursday Good
OZONE

Snow Depth

Station Depth Elevation
No new snow has been reported.

Earthquake Activity

City Distance Mag. Time & Date
Deep River Center, Connecticut 71 miles 2.7 3:09 AM EDT
2014-08-14
Minimum magnitude displayed is 2.5.

Coastal Water Temperatures

Place Temperature
No Stations Reporting

Nearby Weather Stations